createdAt,value
2018-08-25T00:00:58.015Z,82.80
2018-08-25T00:03:01.621Z,82.60
2018-08-25T00:05:05.512Z,83.20
2018-08-25T00:07:09.073Z,83.20
2018-08-25T00:09:12.636Z,82.80
2018-08-25T00:11:16.170Z,82.10
2018-08-25T00:13:19.710Z,82.60
2018-08-25T00:15:23.258Z,82.50
2018-08-25T00:17:26.880Z,82.00
2018-08-25T00:19:30.553Z,81.60
2018-08-25T00:21:34.067Z,81.40
2018-08-25T00:23:37.628Z,82.30
2018-08-25T00:25:41.222Z,82.00
2018-08-25T00:27:44.771Z,82.20
2018-08-25T00:29:48.364Z,82.60
2018-08-25T00:31:52.575Z,82.80
2018-08-25T00:33:56.479Z,83.20
2018-08-25T00:36:00.040Z,83.20
2018-08-25T00:38:03.605Z,82.90
2018-08-25T00:40:07.136Z,82.60
2018-08-25T00:42:10.840Z,82.90
2018-08-25T00:44:14.355Z,83.30
2018-08-25T00:46:18.237Z,83.80
2018-08-25T00:48:21.779Z,82.90
2018-08-25T00:50:25.305Z,82.80
2018-08-25T00:52:28.838Z,82.70
2018-08-25T00:54:32.389Z,82.20
2018-08-25T00:56:35.975Z,81.90
2018-08-25T00:58:39.501Z,81.60
2018-08-25T01:00:43.097Z,81.60
2018-08-25T01:02:46.843Z,81.50
2018-08-25T01:04:50.431Z,81.40
2018-08-25T01:06:53.957Z,81.50
2018-08-25T01:08:57.495Z,81.40
2018-08-25T01:11:01.063Z,81.50
2018-08-25T01:13:04.800Z,81.80
2018-08-25T01:15:08.735Z,82.40
2018-08-25T01:17:12.293Z,82.80
2018-08-25T01:19:15.876Z,83.40
2018-08-25T01:21:19.395Z,83.50
2018-08-25T01:23:22.946Z,84.50
2018-08-25T01:25:26.495Z,84.00
2018-08-25T01:27:30.002Z,83.80
2018-08-25T01:29:33.527Z,83.40
2018-08-25T01:31:37.093Z,83.20
2018-08-25T01:33:40.609Z,82.40
2018-08-25T01:35:44.130Z,83.10
2018-08-25T01:37:47.697Z,83.00
2018-08-25T01:39:51.220Z,83.20
2018-08-25T01:41:54.728Z,82.80
2018-08-25T01:43:58.268Z,82.30
2018-08-25T01:46:01.771Z,82.40
2018-08-25T01:48:05.542Z,82.40
2018-08-25T01:50:09.176Z,82.40
2018-08-25T01:52:12.712Z,82.70
2018-08-25T01:54:16.317Z,82.50
2018-08-25T01:56:19.931Z,82.60
2018-08-25T01:58:23.445Z,82.80
2018-08-25T02:00:26.947Z,82.50
2018-08-25T02:02:30.456Z,82.90
2018-08-25T02:04:33.953Z,82.80
2018-08-25T02:06:37.535Z,82.30
2018-08-25T02:08:41.090Z,81.70
2018-08-25T02:10:44.647Z,82.20
2018-08-25T02:12:54.936Z,82.20
2018-08-25T02:14:58.452Z,82.70
2018-08-25T02:17:02.033Z,83.60
2018-08-25T02:19:05.847Z,83.60
2018-08-25T02:21:09.392Z,83.20
2018-08-25T02:23:12.883Z,83.40
2018-08-25T02:25:16.444Z,82.70
2018-08-25T02:27:20.026Z,82.50
2018-08-25T02:29:23.556Z,83.50
2018-08-25T02:31:27.110Z,83.10
2018-08-25T02:33:30.587Z,83.00
2018-08-25T02:35:34.141Z,83.10
2018-08-25T02:37:37.744Z,83.60
2018-08-25T02:39:41.256Z,83.10
2018-08-25T02:41:44.789Z,83.00
2018-08-25T02:43:48.280Z,82.90
2018-08-25T02:45:51.785Z,83.30
2018-08-25T02:47:55.504Z,82.10
2018-08-25T02:49:59.013Z,82.20
2018-08-25T02:52:02.514Z,81.90
2018-08-25T02:54:06.290Z,82.00
2018-08-25T02:56:10.799Z,82.40
2018-08-25T02:58:14.486Z,82.70
2018-08-25T03:00:18.058Z,82.20
2018-08-25T03:02:21.599Z,82.20
2018-08-25T03:04:25.139Z,82.80
2018-08-25T03:06:28.687Z,82.80
2018-08-25T03:08:32.277Z,82.50
2018-08-25T03:10:35.883Z,82.70
2018-08-25T03:12:39.441Z,82.60
2018-08-25T03:14:42.949Z,82.70
2018-08-25T03:16:46.499Z,83.20
2018-08-25T03:18:50.001Z,82.70
2018-08-25T03:20:53.649Z,83.40
2018-08-25T03:22:57.181Z,83.70
2018-08-25T03:25:00.736Z,83.70
2018-08-25T03:27:04.292Z,83.00
2018-08-25T03:29:07.807Z,83.40
2018-08-25T03:31:11.315Z,83.50
2018-08-25T03:33:14.870Z,83.80
2018-08-25T03:35:18.433Z,83.90
2018-08-25T03:37:22.019Z,84.40
2018-08-25T03:39:25.768Z,83.10
2018-08-25T03:41:29.378Z,82.60
2018-08-25T03:43:32.843Z,83.00
2018-08-25T03:45:36.509Z,83.20
2018-08-25T03:47:40.047Z,82.60
2018-08-25T03:49:43.552Z,82.40
2018-08-25T03:51:47.056Z,82.60
2018-08-25T03:53:50.715Z,83.70
2018-08-25T03:55:54.339Z,83.30
2018-08-25T03:57:58.014Z,83.30
2018-08-25T04:00:01.521Z,83.50
2018-08-25T04:02:05.073Z,83.80
2018-08-25T04:04:08.547Z,84.20
2018-08-25T04:06:12.144Z,83.90
2018-08-25T04:08:15.758Z,85.00
2018-08-25T04:10:19.310Z,84.40
2018-08-25T04:12:22.822Z,83.90
2018-08-25T04:14:26.313Z,84.80
2018-08-25T04:16:29.808Z,85.20
2018-08-25T04:18:33.352Z,84.80
2018-08-25T04:20:36.925Z,83.80
2018-08-25T04:22:40.444Z,84.10
2018-08-25T04:24:44.017Z,84.30
2018-08-25T04:26:47.560Z,83.20
2018-08-25T04:28:51.044Z,83.30
2018-08-25T04:30:54.598Z,83.00
2018-08-25T04:32:58.228Z,82.30
2018-08-25T04:35:01.703Z,81.50
2018-08-25T04:37:05.422Z,81.90
2018-08-25T04:39:10.568Z,83.20
2018-08-25T04:41:14.175Z,83.90
2018-08-25T04:43:17.765Z,84.10
2018-08-25T04:45:21.333Z,85.00
2018-08-25T04:47:24.851Z,84.80
2018-08-25T04:49:28.459Z,84.20
2018-08-25T04:51:31.984Z,83.80
2018-08-25T04:53:35.556Z,83.20
2018-08-25T04:55:39.041Z,83.20
2018-08-25T04:57:42.664Z,84.00
2018-08-25T04:59:46.155Z,83.20
2018-08-25T05:01:49.755Z,83.40
2018-08-25T05:03:53.201Z,83.70
2018-08-25T05:05:56.703Z,83.70
2018-08-25T05:08:00.247Z,82.50
2018-08-25T05:10:03.807Z,82.20
2018-08-25T05:12:08.203Z,83.10
2018-08-25T05:14:11.809Z,83.80
2018-08-25T05:16:15.312Z,83.20
2018-08-25T05:18:18.940Z,83.60
2018-08-25T05:20:22.412Z,83.60
2018-08-25T05:22:26.004Z,83.90
2018-08-25T05:24:29.546Z,83.50
2018-08-25T05:26:33.016Z,83.40
2018-08-25T05:28:36.507Z,83.60
2018-08-25T05:30:40.015Z,83.10
2018-08-25T05:32:43.612Z,82.60
2018-08-25T05:34:47.187Z,82.60
2018-08-25T05:36:50.692Z,83.70
2018-08-25T05:38:54.328Z,81.80
2018-08-25T05:40:57.815Z,82.00
2018-08-25T05:43:01.340Z,82.20
2018-08-25T05:45:04.946Z,83.20
2018-08-25T05:47:08.484Z,82.70
2018-08-25T05:49:11.959Z,82.80
2018-08-25T05:51:15.454Z,82.70
2018-08-25T05:53:18.993Z,82.20
2018-08-25T05:55:22.499Z,82.80
2018-08-25T05:57:26.018Z,81.80
2018-08-25T05:59:29.785Z,81.80
2018-08-25T06:01:33.334Z,82.00
2018-08-25T06:03:36.847Z,82.10
2018-08-25T06:05:40.338Z,82.20
2018-08-25T06:07:43.844Z,82.10
2018-08-25T06:09:47.367Z,81.90
2018-08-25T06:11:50.922Z,81.50
2018-08-25T06:13:54.436Z,81.60
2018-08-25T06:15:58.033Z,81.20
2018-08-25T06:18:01.537Z,82.00
2018-08-25T06:20:05.139Z,81.40
2018-08-25T06:22:08.637Z,81.60
2018-08-25T06:24:12.393Z,81.00
2018-08-25T06:26:15.958Z,83.10
2018-08-25T06:28:19.496Z,82.40
2018-08-25T06:30:23.061Z,82.00
2018-08-25T06:32:26.646Z,81.50
2018-08-25T06:34:30.202Z,82.80
2018-08-25T06:36:33.681Z,83.00
2018-08-25T06:38:37.263Z,83.70
2018-08-25T06:40:40.800Z,84.00
2018-08-25T06:42:44.299Z,84.00
2018-08-25T06:44:47.805Z,85.60
2018-08-25T06:46:51.313Z,86.50
2018-08-25T06:48:54.807Z,84.50
2018-08-25T06:50:58.370Z,83.70
2018-08-25T06:53:01.941Z,83.30
2018-08-25T06:55:05.572Z,82.60
2018-08-25T06:57:09.045Z,83.60
2018-08-25T06:59:12.603Z,84.00
2018-08-25T07:01:16.180Z,83.60
2018-08-25T07:03:19.999Z,82.10
2018-08-25T07:05:23.498Z,81.90
2018-08-25T07:07:27.033Z,82.10
2018-08-25T07:09:30.628Z,81.80
2018-08-25T07:11:34.155Z,81.70
2018-08-25T07:13:37.666Z,82.80
2018-08-25T07:15:41.267Z,83.20
2018-08-25T07:17:44.745Z,83.00
2018-08-25T07:19:48.323Z,82.10
2018-08-25T07:21:51.856Z,82.60
2018-08-25T07:23:55.598Z,82.00
2018-08-25T07:25:59.191Z,80.50
2018-08-25T07:28:02.753Z,80.20
2018-08-25T07:30:06.352Z,81.10
2018-08-25T07:32:10.045Z,80.90
2018-08-25T07:34:13.488Z,80.70
2018-08-25T07:36:16.979Z,81.10
2018-08-25T07:38:20.593Z,83.60
2018-08-25T07:40:24.079Z,83.20
2018-08-25T07:42:27.581Z,81.40
2018-08-25T07:44:31.859Z,81.80
2018-08-25T07:46:35.358Z,80.10
2018-08-25T07:48:38.886Z,81.20
2018-08-25T07:50:42.415Z,79.90
2018-08-25T07:52:45.903Z,78.40
2018-08-25T07:54:49.467Z,78.30
2018-08-25T07:56:52.967Z,78.00
2018-08-25T07:58:56.501Z,76.00
2018-08-25T08:01:00.092Z,76.50
2018-08-25T08:03:03.603Z,76.50
2018-08-25T08:05:07.239Z,76.10
2018-08-25T08:07:10.755Z,76.00
2018-08-25T08:09:14.312Z,76.50
2018-08-25T08:11:17.775Z,77.10
2018-08-25T08:13:21.355Z,76.50
2018-08-25T08:15:24.881Z,75.40
2018-08-25T08:17:28.402Z,74.50
2018-08-25T08:19:31.976Z,74.50
2018-08-25T08:21:35.451Z,74.60
2018-08-25T08:23:38.953Z,73.30
2018-08-25T08:25:42.468Z,74.60
2018-08-25T08:27:46.010Z,75.00
2018-08-25T08:29:49.596Z,74.40
2018-08-25T08:31:53.068Z,74.30
2018-08-25T08:33:56.599Z,74.20
2018-08-25T08:36:00.186Z,76.10
2018-08-25T08:38:03.751Z,75.60
2018-08-25T08:40:07.288Z,75.20
2018-08-25T08:42:10.910Z,74.00
2018-08-25T08:44:14.387Z,74.50
2018-08-25T08:46:23.382Z,74.10
2018-08-25T08:48:26.891Z,74.20
2018-08-25T08:50:30.424Z,74.20
2018-08-25T08:52:33.967Z,77.80
2018-08-25T08:54:37.576Z,75.40
2018-08-25T08:56:41.068Z,76.80
2018-08-25T08:58:44.599Z,75.90
2018-08-25T09:00:48.119Z,75.30
2018-08-25T09:02:51.698Z,76.30
2018-08-25T09:04:55.231Z,76.40
2018-08-25T09:06:58.821Z,75.50
2018-08-25T09:09:02.327Z,77.10
2018-08-25T09:11:05.964Z,76.90
2018-08-25T09:13:09.535Z,76.50
2018-08-25T09:15:13.045Z,76.10
2018-08-25T09:17:16.565Z,78.00
2018-08-25T09:19:20.120Z,75.70
2018-08-25T09:21:23.629Z,76.30
2018-08-25T09:23:27.134Z,73.70
2018-08-25T09:25:30.635Z,74.30
2018-08-25T09:27:34.263Z,74.90
2018-08-25T09:29:37.780Z,77.60
2018-08-25T09:31:41.265Z,77.20
2018-08-25T09:33:44.756Z,75.50
2018-08-25T09:35:48.474Z,78.60
2018-08-25T09:37:51.898Z,80.50
2018-08-25T09:39:55.412Z,79.40
2018-08-25T09:41:58.927Z,79.70
2018-08-25T09:44:02.419Z,79.70
2018-08-25T09:46:06.084Z,79.20
2018-08-25T09:48:09.591Z,78.00
2018-08-25T09:50:13.112Z,78.90
2018-08-25T09:52:16.624Z,78.50
2018-08-25T09:54:20.118Z,80.90
2018-08-25T09:56:23.673Z,83.00
2018-08-25T09:58:27.161Z,81.50
2018-08-25T10:00:30.768Z,80.40
2018-08-25T10:02:34.291Z,78.60
2018-08-25T10:04:37.925Z,78.50
2018-08-25T10:06:41.440Z,78.30
2018-08-25T10:08:45.107Z,78.40
2018-08-25T10:10:48.808Z,78.80
2018-08-25T10:12:52.296Z,75.40
2018-08-25T10:14:55.895Z,77.10
2018-08-25T10:16:59.426Z,76.90
2018-08-25T10:19:03.431Z,75.10
2018-08-25T10:21:06.995Z,75.80
2018-08-25T10:23:10.615Z,76.80
2018-08-25T10:25:14.292Z,76.00
2018-08-25T10:27:17.781Z,76.30
2018-08-25T10:29:21.301Z,75.20
2018-08-25T10:31:24.868Z,75.40
2018-08-25T10:33:28.355Z,76.70
2018-08-25T10:35:31.885Z,76.00
2018-08-25T10:37:35.450Z,77.10
2018-08-25T10:39:38.955Z,75.50
2018-08-25T10:41:42.511Z,77.40
2018-08-25T10:43:46.120Z,77.10
2018-08-25T10:45:49.667Z,77.10
2018-08-25T10:47:53.182Z,81.10
2018-08-25T10:49:56.724Z,77.00
2018-08-25T10:52:00.312Z,75.90
2018-08-25T10:54:04.006Z,81.20
2018-08-25T10:56:07.679Z,82.10
2018-08-25T10:58:11.168Z,79.40
2018-08-25T11:00:14.750Z,80.10
2018-08-25T11:02:23.161Z,81.80
2018-08-25T11:04:26.663Z,81.30
2018-08-25T11:06:30.228Z,78.80
2018-08-25T11:08:33.788Z,80.70
2018-08-25T11:10:37.399Z,80.00
2018-08-25T11:12:41.046Z,82.90
2018-08-25T11:14:44.999Z,83.00
2018-08-25T11:16:48.599Z,79.60
2018-08-25T11:18:52.172Z,81.70
2018-08-25T11:20:55.737Z,79.90
2018-08-25T11:22:59.260Z,83.80
2018-08-25T11:25:02.798Z,81.40
2018-08-25T11:27:06.498Z,82.30
2018-08-25T11:29:10.123Z,81.70
2018-08-25T11:31:13.627Z,83.00
2018-08-25T11:33:17.128Z,81.90
2018-08-25T11:35:20.667Z,79.50
2018-08-25T11:37:24.475Z,79.80
2018-08-25T11:39:27.793Z,82.80
2018-08-25T11:41:31.340Z,82.60
2018-08-25T11:43:34.826Z,79.00
2018-08-25T11:45:38.395Z,83.90
2018-08-25T11:47:41.922Z,82.10
2018-08-25T11:49:46.603Z,82.30
2018-08-25T11:51:50.145Z,80.10
2018-08-25T11:53:53.843Z,83.90
2018-08-25T11:55:57.395Z,79.80
2018-08-25T11:58:01.022Z,82.10
2018-08-25T12:00:04.827Z,79.10
2018-08-25T12:02:08.423Z,81.90
2018-08-25T12:04:11.924Z,78.40
2018-08-25T12:06:15.476Z,81.70
2018-08-25T12:08:18.964Z,81.30
2018-08-25T12:10:22.456Z,80.10
2018-08-25T12:12:25.987Z,81.80
2018-08-25T12:14:29.526Z,80.90
2018-08-25T12:16:33.107Z,83.20
2018-08-25T12:18:36.615Z,81.60
2018-08-25T12:20:40.127Z,80.70
2018-08-25T12:22:43.735Z,78.10
2018-08-25T12:24:47.207Z,78.20
2018-08-25T12:26:52.044Z,82.10
2018-08-25T12:28:55.584Z,82.10
2018-08-25T12:30:59.092Z,83.00
2018-08-25T12:33:02.596Z,78.30
2018-08-25T12:35:06.303Z,79.40
2018-08-25T12:37:09.791Z,81.30
2018-08-25T12:39:13.397Z,81.70
2018-08-25T12:41:16.842Z,78.70
2018-08-25T12:43:20.521Z,81.30
2018-08-25T12:45:23.974Z,79.90
2018-08-25T12:47:27.914Z,80.90
2018-08-25T12:49:31.723Z,82.40
2018-08-25T12:51:35.275Z,78.80
2018-08-25T12:53:38.795Z,81.70
2018-08-25T12:55:42.424Z,79.70
2018-08-25T12:57:46.076Z,79.90
2018-08-25T12:59:49.592Z,79.70
2018-08-25T13:01:53.242Z,82.30
2018-08-25T13:03:57.023Z,80.50
2018-08-25T13:06:00.617Z,80.90
2018-08-25T13:08:04.252Z,78.60
2018-08-25T13:10:07.787Z,79.40
2018-08-25T13:12:11.773Z,77.70
2018-08-25T13:14:15.364Z,79.00
2018-08-25T13:16:18.845Z,78.80
2018-08-25T13:18:22.365Z,80.30
2018-08-25T13:20:26.046Z,81.90
2018-08-25T13:22:29.593Z,79.00
2018-08-25T13:24:36.328Z,80.00
2018-08-25T13:26:39.885Z,78.00
2018-08-25T13:28:43.420Z,78.30
2018-08-25T13:30:47.009Z,78.10
2018-08-25T13:32:50.560Z,75.50
2018-08-25T13:34:54.067Z,74.50
2018-08-25T13:36:57.636Z,77.50
2018-08-25T13:39:01.423Z,77.90
2018-08-25T13:41:05.176Z,78.90
2018-08-25T13:43:08.739Z,78.40
2018-08-25T13:45:12.364Z,76.50
2018-08-25T13:47:15.942Z,76.80
2018-08-25T13:49:19.521Z,77.10
2018-08-25T13:51:23.034Z,78.00
2018-08-25T13:53:26.560Z,78.50
2018-08-25T13:55:30.147Z,78.60
2018-08-25T13:57:33.696Z,78.50
2018-08-25T13:59:37.172Z,79.20
2018-08-25T14:01:40.705Z,79.30
2018-08-25T14:03:44.251Z,79.50
2018-08-25T14:05:47.762Z,78.60
2018-08-25T14:07:51.317Z,78.50
2018-08-25T14:09:54.849Z,77.50
2018-08-25T14:11:58.540Z,76.40
2018-08-25T14:14:02.039Z,76.80
2018-08-25T14:16:05.684Z,76.70
2018-08-25T14:18:09.201Z,76.00
2018-08-25T14:20:12.855Z,78.10
2018-08-25T14:22:16.355Z,76.00
2018-08-25T14:24:19.985Z,77.30
2018-08-25T14:26:23.533Z,77.00
2018-08-25T14:28:27.200Z,77.70
2018-08-25T14:30:30.935Z,81.80
2018-08-25T14:32:34.523Z,78.20
2018-08-25T14:34:38.263Z,77.40
2018-08-25T14:36:41.811Z,77.10
2018-08-25T14:38:45.334Z,75.70
2018-08-25T14:40:48.824Z,78.30
2018-08-25T14:42:52.426Z,77.40
2018-08-25T14:44:55.920Z,78.30
2018-08-25T14:46:59.527Z,80.20
2018-08-25T14:49:03.252Z,78.20
2018-08-25T14:51:06.912Z,77.70
2018-08-25T14:53:11.252Z,77.10
2018-08-25T14:55:14.832Z,75.80
2018-08-25T14:57:18.386Z,74.50
2018-08-25T14:59:22.017Z,76.10
2018-08-25T15:01:25.704Z,75.50
2018-08-25T15:03:29.227Z,77.30
2018-08-25T15:05:32.745Z,72.90
2018-08-25T15:07:36.257Z,75.70
2018-08-25T15:09:39.797Z,75.80
2018-08-25T15:11:44.833Z,74.30
2018-08-25T15:13:48.355Z,74.80
2018-08-25T15:15:51.928Z,75.00
2018-08-25T15:17:55.888Z,73.90
2018-08-25T15:19:59.432Z,74.00
2018-08-25T15:22:02.962Z,73.00
2018-08-25T15:24:06.523Z,74.10
2018-08-25T15:26:10.089Z,74.60
2018-08-25T15:28:13.662Z,72.50
2018-08-25T15:30:17.208Z,73.60
2018-08-25T15:32:20.733Z,73.10
2018-08-25T15:34:24.375Z,73.00
2018-08-25T15:36:27.977Z,72.50
2018-08-25T15:38:31.499Z,74.00
2018-08-25T15:40:35.411Z,72.60
2018-08-25T15:42:38.978Z,74.10
2018-08-25T15:44:42.671Z,72.20
2018-08-25T15:46:46.275Z,70.60
2018-08-25T15:48:49.828Z,72.30
2018-08-25T15:50:53.445Z,72.40
2018-08-25T15:52:56.927Z,74.10
2018-08-25T15:55:00.548Z,72.30
2018-08-25T15:57:04.027Z,72.80
2018-08-25T15:59:07.608Z,72.80
2018-08-25T16:01:11.124Z,71.70
2018-08-25T16:03:14.710Z,72.30
2018-08-25T16:05:18.246Z,75.20
2018-08-25T16:07:21.760Z,72.40
2018-08-25T16:09:25.334Z,72.80
2018-08-25T16:11:28.961Z,72.20
2018-08-25T16:13:32.543Z,72.90
2018-08-25T16:15:36.117Z,74.80
2018-08-25T16:17:39.768Z,77.10
2018-08-25T16:19:43.588Z,78.00
2018-08-25T16:21:47.110Z,78.90
2018-08-25T16:23:50.647Z,79.50
2018-08-25T16:25:54.198Z,79.70
2018-08-25T16:27:58.066Z,79.10
2018-08-25T16:30:01.579Z,79.70
2018-08-25T16:32:05.208Z,80.90
2018-08-25T16:34:08.768Z,80.50
2018-08-25T16:36:12.289Z,79.90
2018-08-25T16:38:16.039Z,78.90
2018-08-25T16:40:19.596Z,79.20
2018-08-25T16:42:23.119Z,78.90
2018-08-25T16:44:26.723Z,78.50
2018-08-25T16:46:30.224Z,78.60
2018-08-25T16:48:33.811Z,79.00
2018-08-25T16:50:37.308Z,77.80
2018-08-25T16:52:40.839Z,80.10
2018-08-25T16:54:44.423Z,79.60
2018-08-25T16:56:47.976Z,79.70
2018-08-25T16:58:51.471Z,79.50
2018-08-25T17:00:55.031Z,79.50
2018-08-25T17:02:58.543Z,79.40
2018-08-25T17:05:02.160Z,80.90
2018-08-25T17:07:05.813Z,80.40
2018-08-25T17:09:10.700Z,79.80
2018-08-25T17:11:14.361Z,79.50
2018-08-25T17:13:17.926Z,78.90
2018-08-25T17:15:21.471Z,78.40
2018-08-25T17:17:24.980Z,78.40
2018-08-25T17:19:28.719Z,78.10
2018-08-25T17:21:32.248Z,77.70
2018-08-25T17:23:35.760Z,76.90
2018-08-25T17:25:39.407Z,78.10
2018-08-25T17:27:42.965Z,78.50
2018-08-25T17:29:46.471Z,78.40
2018-08-25T17:31:50.048Z,77.20
2018-08-25T17:33:53.627Z,77.90
2018-08-25T17:35:57.362Z,78.00
2018-08-25T17:38:00.981Z,77.90
2018-08-25T17:40:04.672Z,78.50
2018-08-25T17:42:08.240Z,78.50
2018-08-25T17:44:11.852Z,78.90
2018-08-25T17:46:15.512Z,78.00
2018-08-25T17:48:19.009Z,77.30
2018-08-25T17:50:22.540Z,76.60
2018-08-25T17:52:26.169Z,76.50
2018-08-25T17:54:29.667Z,77.00
2018-08-25T17:56:33.199Z,76.90
2018-08-25T17:58:36.688Z,76.70
2018-08-25T18:00:40.264Z,77.00
2018-08-25T18:02:44.119Z,77.00
2018-08-25T18:04:47.636Z,77.90
2018-08-25T18:06:51.151Z,78.20
2018-08-25T18:08:54.700Z,78.40
2018-08-25T18:10:58.288Z,79.20
2018-08-25T18:13:01.773Z,79.80
2018-08-25T18:15:06.150Z,81.40
2018-08-25T18:17:09.800Z,81.10
2018-08-25T18:19:13.438Z,80.20
2018-08-25T18:21:17.172Z,81.10
2018-08-25T18:23:20.768Z,79.50
2018-08-25T18:25:24.867Z,80.20
2018-08-25T18:27:28.521Z,78.70
2018-08-25T18:29:32.289Z,78.30
2018-08-25T18:31:35.852Z,78.30
2018-08-25T18:33:39.659Z,78.10
2018-08-25T18:35:43.635Z,78.40
2018-08-25T18:37:47.472Z,78.30
2018-08-25T18:39:51.031Z,78.00
2018-08-25T18:41:54.579Z,78.00
2018-08-25T18:43:58.756Z,77.80
2018-08-25T18:46:02.440Z,77.90
2018-08-25T18:48:06.009Z,78.40
2018-08-25T18:50:09.939Z,78.40
2018-08-25T18:52:13.818Z,78.30
2018-08-25T18:54:17.728Z,78.70
2018-08-25T18:56:21.376Z,78.30
2018-08-25T18:58:25.135Z,78.70
2018-08-25T19:00:28.962Z,79.10
2018-08-25T19:02:32.727Z,78.80
2018-08-25T19:04:36.631Z,78.90
2018-08-25T19:06:40.516Z,78.90
2018-08-25T19:08:44.208Z,78.40
2018-08-25T19:10:47.925Z,78.70
2018-08-25T19:12:51.700Z,78.90
2018-08-25T19:14:55.299Z,79.20
2018-08-25T19:16:58.992Z,80.00
2018-08-25T19:19:02.647Z,79.50
2018-08-25T19:21:06.570Z,79.50
2018-08-25T19:23:10.392Z,79.40
2018-08-25T19:25:14.186Z,79.30
2018-08-25T19:27:18.241Z,79.10
2018-08-25T19:29:22.378Z,79.20
2018-08-25T19:31:26.345Z,79.30
2018-08-25T19:33:30.256Z,79.30
2018-08-25T19:35:34.132Z,79.10
2018-08-25T19:37:38.187Z,79.10
2018-08-25T19:39:42.081Z,79.40
2018-08-25T19:41:45.909Z,79.50
2018-08-25T19:43:49.794Z,79.40
2018-08-25T19:45:53.673Z,79.30
2018-08-25T19:47:57.607Z,80.30
2018-08-25T19:50:01.398Z,79.30
2018-08-25T19:52:05.567Z,79.30
2018-08-25T19:54:09.362Z,79.30
2018-08-25T19:56:13.144Z,79.30
2018-08-25T19:58:16.956Z,79.80
2018-08-25T20:00:20.804Z,79.60
2018-08-25T20:02:24.509Z,79.60
2018-08-25T20:04:28.103Z,79.90
2018-08-25T20:06:31.916Z,80.40
2018-08-25T20:08:35.793Z,80.50
2018-08-25T20:10:39.448Z,80.30
2018-08-25T20:12:42.986Z,80.70
2018-08-25T20:14:46.505Z,80.70
2018-08-25T20:16:50.013Z,80.90
2018-08-25T20:18:53.791Z,80.80
2018-08-25T20:20:57.654Z,80.20
2018-08-25T20:23:01.476Z,79.90
2018-08-25T20:25:05.409Z,79.70
2018-08-25T20:27:09.264Z,79.80
2018-08-25T20:29:12.903Z,80.00
2018-08-25T20:31:16.464Z,79.80
2018-08-25T20:33:20.357Z,79.60
2018-08-25T20:35:24.101Z,79.90
2018-08-25T20:37:27.992Z,79.90
2018-08-25T20:39:31.793Z,80.00
2018-08-25T20:41:35.631Z,80.40
2018-08-25T20:43:39.303Z,80.50
2018-08-25T20:45:42.970Z,81.30
2018-08-25T20:47:46.579Z,80.70
2018-08-25T20:49:50.190Z,80.70
2018-08-25T20:51:53.794Z,80.40
2018-08-25T20:53:57.328Z,80.90
2018-08-25T20:56:00.885Z,81.20
2018-08-25T20:58:04.627Z,80.90
2018-08-25T21:00:08.209Z,80.90
2018-08-25T21:02:11.751Z,80.40
2018-08-25T21:04:15.281Z,79.70
2018-08-25T21:06:19.176Z,79.00
2018-08-25T21:08:22.759Z,79.80
2018-08-25T21:10:26.298Z,79.80
2018-08-25T21:12:29.856Z,79.80
2018-08-25T21:14:33.685Z,80.10
2018-08-25T21:16:37.308Z,80.60
2018-08-25T21:18:41.076Z,81.10
2018-08-25T21:20:44.575Z,80.60
2018-08-25T21:22:48.139Z,80.80
2018-08-25T21:24:51.656Z,80.50
2018-08-25T21:26:55.288Z,80.80
2018-08-25T21:28:58.847Z,81.00
2018-08-25T21:31:02.698Z,81.50
2018-08-25T21:33:06.247Z,81.00
2018-08-25T21:35:09.800Z,80.30
2018-08-25T21:37:13.504Z,80.10
2018-08-25T21:39:17.031Z,79.40
2018-08-25T21:41:20.603Z,79.50
2018-08-25T21:43:24.094Z,79.50
2018-08-25T21:45:27.708Z,80.20
2018-08-25T21:47:31.263Z,80.00
2018-08-25T21:49:34.781Z,79.70
2018-08-25T21:51:38.312Z,79.40
2018-08-25T21:53:41.823Z,79.30
2018-08-25T21:55:45.412Z,78.90
2018-08-25T21:57:48.928Z,79.60
2018-08-25T21:59:52.503Z,80.50
2018-08-25T22:01:59.024Z,79.70
2018-08-25T22:04:02.552Z,79.40
2018-08-25T22:06:06.388Z,79.20
2018-08-25T22:08:10.026Z,79.30
2018-08-25T22:10:13.645Z,79.50
2018-08-25T22:12:17.222Z,80.60
2018-08-25T22:14:20.841Z,80.90
2018-08-25T22:16:24.343Z,80.70
2018-08-25T22:18:30.856Z,79.90
2018-08-25T22:20:34.680Z,79.70
2018-08-25T22:22:38.240Z,79.30
2018-08-25T22:24:41.759Z,79.10
2018-08-25T22:26:45.330Z,79.20
2018-08-25T22:28:48.835Z,79.20
2018-08-25T22:30:52.412Z,79.30
2018-08-25T22:32:55.940Z,79.00
2018-08-25T22:34:59.443Z,78.80
2018-08-25T22:37:03.124Z,78.60
2018-08-25T22:39:09.252Z,78.40
2018-08-25T22:41:13.035Z,78.70
2018-08-25T22:43:16.577Z,78.80
2018-08-25T22:45:20.211Z,78.70
2018-08-25T22:47:23.753Z,78.90
2018-08-25T22:49:27.366Z,78.90
2018-08-25T22:51:31.144Z,78.90
2018-08-25T22:53:34.548Z,79.00
2018-08-25T22:55:38.098Z,79.10
2018-08-25T22:57:41.768Z,79.40
2018-08-25T22:59:45.466Z,78.80
2018-08-25T23:01:48.962Z,79.10
2018-08-25T23:03:52.571Z,79.80
2018-08-25T23:05:56.162Z,78.80
2018-08-25T23:07:59.690Z,79.20
2018-08-25T23:10:03.560Z,79.90
2018-08-25T23:12:07.064Z,79.30
2018-08-25T23:14:10.634Z,79.20
2018-08-25T23:16:14.152Z,79.10
2018-08-25T23:18:17.671Z,80.40
2018-08-25T23:20:21.195Z,78.10
2018-08-25T23:22:25.023Z,78.40
2018-08-25T23:24:28.558Z,78.30
2018-08-25T23:26:32.143Z,77.80
2018-08-25T23:28:35.634Z,78.20
2018-08-25T23:30:39.176Z,78.90
2018-08-25T23:32:42.649Z,79.30
2018-08-25T23:34:46.211Z,80.00
2018-08-25T23:36:49.703Z,79.80
2018-08-25T23:38:53.374Z,79.70
2018-08-25T23:40:56.928Z,79.50
2018-08-25T23:43:00.444Z,79.40
2018-08-25T23:45:04.067Z,79.20
2018-08-25T23:47:07.591Z,79.40
2018-08-25T23:49:11.105Z,80.10
2018-08-25T23:51:14.611Z,81.40
2018-08-25T23:53:18.092Z,81.50
2018-08-25T23:55:21.707Z,83.50
2018-08-25T23:57:25.219Z,84.60
2018-08-25T23:59:28.901Z,86.00
